Time;durP1;ratioP1;P1;durP2;ratioP2;P2;SDS_P1;SDS_P2;PMS_P1;PMS_P2;Temp;Humidity;BMP_temperature;BMP_pressure;BME280_temperature;BME280_humidity;BME280_pressure;Samples;Min_cycle;Max_cycle;Signal;HPM_P1;HPM_P2
2022/07/08 00:00:25;;;;;;;5.50;1.27;;;;;;;;;;5095383;28;20210;-44
2022/07/08 00:03:02;;;;;;;6.10;1.42;;;;;;;;;;5094895;28;20276;-43
2022/07/08 00:05:30;;;;;;;4.20;1.27;;;;;;;;;;5094891;28;20194;-45
2022/07/08 00:07:57;;;;;;;11.65;1.38;;;;;;;;;;5095005;28;20224;-44
2022/07/08 00:10:24;;;;;;;7.82;1.30;;;;;;;;;;5095287;28;20206;-43
2022/07/08 00:12:51;;;;;;;10.35;1.35;;;;;;;;;;5094944;28;20226;-43
2022/07/08 00:15:20;;;;;;;9.05;1.75;;;;;;;;;;5094650;28;20542;-44
2022/07/08 00:17:48;;;;;;;5.32;1.50;;;;;;;;;;5094885;28;20555;-43
2022/07/08 00:20:15;;;;;;;4.32;1.42;;;;;;;;;;5093594;28;20194;-44
2022/07/08 00:22:42;;;;;;;7.38;1.70;;;;;;;;;;5095320;28;20194;-43
2022/07/08 00:25:09;;;;;;;2.70;1.48;;;;;;;;;;5095505;28;20198;-43
2022/07/08 00:27:36;;;;;;;4.13;1.50;;;;;;;;;;5095135;28;20202;-43
2022/07/08 00:30:04;;;;;;;7.10;1.83;;;;;;;;;;5094815;28;20202;-43
2022/07/08 00:32:30;;;;;;;9.90;1.63;;;;;;;;;;5094802;28;20668;-43
2022/07/08 00:34:57;;;;;;;8.93;1.38;;;;;;;;;;5094574;28;20690;-44
2022/07/08 00:37:24;;;;;;;13.85;1.60;;;;;;;;;;5094779;28;20207;-43
2022/07/08 00:39:51;;;;;;;14.63;2.30;;;;;;;;;;5095833;28;20214;-43
2022/07/08 00:42:18;;;;;;;5.13;1.88;;;;;;;;;;5095273;28;20199;-44
2022/07/08 00:44:45;;;;;;;11.07;1.60;;;;;;;;;;5094603;28;20641;-44
2022/07/08 00:47:12;;;;;;;12.48;2.33;;;;;;;;;;5094657;28;20210;-42
2022/07/08 00:49:40;;;;;;;23.60;1.75;;;;;;;;;;5094892;28;20213;-43
2022/07/08 00:52:07;;;;;;;10.30;1.88;;;;;;;;;;5095394;28;20249;-43
2022/07/08 00:54:35;;;;;;;9.00;1.40;;;;;;;;;;5094802;28;20260;-42
2022/07/08 00:57:02;;;;;;;15.88;1.40;;;;;;;;;;5093681;28;20259;-42
2022/07/08 00:59:29;;;;;;;6.88;1.48;;;;;;;;;;5094746;28;20267;-44
2022/07/08 01:01:57;;;;;;;23.70;1.88;;;;;;;;;;5094640;28;20697;-43
2022/07/08 01:04:24;;;;;;;12.30;1.52;;;;;;;;;;5094598;28;20209;-43
2022/07/08 01:06:51;;;;;;;14.57;1.73;;;;;;;;;;5094844;28;20206;-43
2022/07/08 01:09:18;;;;;;;10.07;1.70;;;;;;;;;;5094403;28;20199;-44
2022/07/08 01:11:46;;;;;;;14.32;1.55;;;;;;;;;;5094459;28;20209;-45
2022/07/08 01:14:16;;;;;;;9.60;1.80;;;;;;;;;;5094553;28;20339;-46
2022/07/08 01:16:43;;;;;;;10.75;1.65;;;;;;;;;;5094248;28;20209;-43
2022/07/08 01:19:10;;;;;;;10.35;1.52;;;;;;;;;;5094585;28;20207;-44
2022/07/08 01:21:37;;;;;;;11.98;1.63;;;;;;;;;;5094758;28;20238;-43
2022/07/08 01:24:04;;;;;;;13.95;1.75;;;;;;;;;;5094795;28;20205;-44
2022/07/08 01:26:31;;;;;;;10.93;1.67;;;;;;;;;;5094538;28;20331;-46
2022/07/08 01:28:58;;;;;;;4.63;1.60;;;;;;;;;;5093318;28;20194;-43
2022/07/08 01:31:26;;;;;;;7.82;1.40;;;;;;;;;;5096724;28;20207;-42
2022/07/08 01:33:53;;;;;;;9.27;2.28;;;;;;;;;;5098254;28;20222;-42
2022/07/08 01:36:20;;;;;;;17.23;1.30;;;;;;;;;;5098385;28;20203;-43
2022/07/08 01:38:47;;;;;;;9.43;1.40;;;;;;;;;;5097642;28;20225;-44
2022/07/08 01:41:14;;;;;;;10.98;1.77;;;;;;;;;;5097752;28;20260;-43
2022/07/08 01:43:41;;;;;;;11.63;1.48;;;;;;;;;;5097550;28;20625;-44
2022/07/08 01:46:08;;;;;;;7.03;1.33;;;;;;;;;;5097337;28;20683;-45
2022/07/08 01:48:35;;;;;;;6.03;1.40;;;;;;;;;;5097580;28;20217;-42
2022/07/08 01:51:02;;;;;;;5.60;1.10;;;;;;;;;;5097523;28;20424;-42
2022/07/08 01:53:29;;;;;;;9.18;1.30;;;;;;;;;;5097402;28;20253;-43
2022/07/08 01:55:56;;;;;;;11.13;1.23;;;;;;;;;;5097444;28;20199;-43
2022/07/08 01:58:23;;;;;;;19.98;1.80;;;;;;;;;;5097109;28;20710;-43
2022/07/08 02:00:50;;;;;;;17.30;1.65;;;;;;;;;;5097436;28;20218;-43
2022/07/08 02:03:17;;;;;;;17.48;1.65;;;;;;;;;;5097035;28;20686;-43
2022/07/08 02:05:44;;;;;;;7.53;1.20;;;;;;;;;;5096997;28;20225;-43
2022/07/08 02:08:11;;;;;;;9.40;1.70;;;;;;;;;;5097032;28;20205;-42
2022/07/08 02:13:24;;;;;;;13.30;1.70;;;;;;;;;;5097039;28;20227;-43
2022/07/08 02:15:51;;;;;;;6.90;1.20;;;;;;;;;;5097005;28;20263;-43
2022/07/08 02:18:18;;;;;;;14.27;1.50;;;;;;;;;;5096861;28;20229;-43
2022/07/08 02:20:45;;;;;;;29.55;2.28;;;;;;;;;;5096811;28;20234;-42
2022/07/08 02:23:12;;;;;;;37.08;3.10;;;;;;;;;;5097048;28;20259;-42
2022/07/08 02:25:39;;;;;;;14.57;1.80;;;;;;;;;;5095810;28;20267;-43
2022/07/08 02:28:06;;;;;;;22.17;2.30;;;;;;;;;;5095871;28;20206;-42
2022/07/08 02:30:33;;;;;;;7.88;1.90;;;;;;;;;;5096621;28;20199;-42
2022/07/08 02:33:00;;;;;;;9.82;2.17;;;;;;;;;;5096319;28;20525;-42
2022/07/08 02:35:27;;;;;;;9.98;2.00;;;;;;;;;;5096737;28;20203;-43
2022/07/08 02:37:54;;;;;;;6.80;1.90;;;;;;;;;;5096642;28;20202;-43
2022/07/08 02:40:21;;;;;;;9.98;2.47;;;;;;;;;;5096781;28;20608;-43
2022/07/08 02:42:48;;;;;;;16.65;2.47;;;;;;;;;;5096104;28;20263;-44
2022/07/08 02:45:15;;;;;;;18.65;2.20;;;;;;;;;;5096621;28;20210;-43
2022/07/08 02:47:42;;;;;;;33.97;2.75;;;;;;;;;;5096718;28;20207;-43
2022/07/08 02:50:09;;;;;;;20.70;2.13;;;;;;;;;;5094815;28;20202;-43
2022/07/08 02:52:36;;;;;;;16.60;2.60;;;;;;;;;;5096488;28;20249;-42
2022/07/08 02:55:04;;;;;;;20.90;2.65;;;;;;;;;;5096570;28;20211;-42
2022/07/08 02:57:31;;;;;;;19.90;2.40;;;;;;;;;;5096642;28;20202;-42
2022/07/08 02:59:58;;;;;;;25.23;2.58;;;;;;;;;;5096363;28;20271;-43
2022/07/08 03:02:24;;;;;;;20.15;2.97;;;;;;;;;;5096250;28;20263;-42
2022/07/08 03:04:53;;;;;;;14.60;2.88;;;;;;;;;;5096239;28;20207;-42
2022/07/08 03:07:20;;;;;;;12.88;2.40;;;;;;;;;;5096543;28;20222;-42
2022/07/08 03:09:48;;;;;;;14.98;2.58;;;;;;;;;;5096241;28;20206;-42
2022/07/08 03:12:15;;;;;;;12.60;2.55;;;;;;;;;;5096204;28;20199;-41
2022/07/08 03:14:42;;;;;;;16.30;2.20;;;;;;;;;;5095882;28;20228;-42
2022/07/08 03:17:09;;;;;;;21.27;3.20;;;;;;;;;;5096120;28;20207;-43
2022/07/08 03:19:36;;;;;;;15.43;2.53;;;;;;;;;;5096070;28;20214;-42
2022/07/08 03:22:04;;;;;;;19.13;2.45;;;;;;;;;;5095997;28;20234;-41
2022/07/08 03:24:31;;;;;;;13.73;3.15;;;;;;;;;;5096252;28;20256;-42
2022/07/08 03:26:59;;;;;;;20.92;2.58;;;;;;;;;;5095912;28;20221;-42
2022/07/08 03:29:26;;;;;;;8.80;2.75;;;;;;;;;;5095726;28;20217;-42
2022/07/08 03:31:53;;;;;;;13.02;2.70;;;;;;;;;;5094942;28;20645;-42
2022/07/08 03:34:20;;;;;;;9.70;2.30;;;;;;;;;;5095794;28;20233;-43
2022/07/08 03:36:47;;;;;;;9.45;2.17;;;;;;;;;;5095755;28;20206;-42
2022/07/08 03:39:15;;;;;;;16.63;2.63;;;;;;;;;;5095743;28;20521;-42
2022/07/08 03:41:42;;;;;;;12.45;2.47;;;;;;;;;;5095764;28;20211;-42
2022/07/08 03:44:09;;;;;;;16.00;2.40;;;;;;;;;;5095447;28;20263;-43
2022/07/08 03:46:36;;;;;;;14.13;2.97;;;;;;;;;;5095697;28;20199;-43
2022/07/08 03:49:03;;;;;;;22.17;3.05;;;;;;;;;;5095561;28;20202;-42
2022/07/08 03:51:30;;;;;;;18.33;2.83;;;;;;;;;;5095399;28;20198;-42
2022/07/08 03:53:57;;;;;;;13.13;2.60;;;;;;;;;;5094802;28;20210;-42
2022/07/08 03:56:24;;;;;;;7.20;2.40;;;;;;;;;;5095136;28;20210;-42
2022/07/08 03:58:51;;;;;;;10.20;2.40;;;;;;;;;;5093836;28;20262;-42
2022/07/08 04:01:18;;;;;;;14.35;2.70;;;;;;;;;;5095419;28;20289;-44
2022/07/08 04:03:46;;;;;;;17.30;3.00;;;;;;;;;;5095207;28;20202;-46
2022/07/08 04:06:13;;;;;;;12.18;2.50;;;;;;;;;;5095316;28;20543;-46
2022/07/08 04:08:42;;;;;;;7.53;2.50;;;;;;;;;;5095105;28;20206;-44
2022/07/08 04:11:09;;;;;;;8.70;2.22;;;;;;;;;;5090095;28;20219;-46
2022/07/08 04:13:38;;;;;;;9.00;2.47;;;;;;;;;;5090628;28;20258;-45
2022/07/08 04:16:08;;;;;;;11.38;2.45;;;;;;;;;;5092488;28;20243;-45
2022/07/08 04:18:35;;;;;;;8.70;2.45;;;;;;;;;;5089613;28;20219;-42
2022/07/08 04:21:02;;;;;;;12.75;2.58;;;;;;;;;;5092719;28;20240;-42
2022/07/08 04:23:29;;;;;;;14.40;2.30;;;;;;;;;;5093316;28;20572;-45
2022/07/08 04:25:59;;;;;;;10.88;2.58;;;;;;;;;;5093398;28;20234;-43
2022/07/08 04:28:26;;;;;;;9.57;2.17;;;;;;;;;;5093887;28;20230;-44
2022/07/08 04:30:55;;;;;;;9.45;2.08;;;;;;;;;;5094293;28;20226;-42
2022/07/08 04:33:23;;;;;;;13.45;2.50;;;;;;;;;;5094009;28;20242;-46
2022/07/08 04:35:50;;;;;;;11.38;2.30;;;;;;;;;;5093841;28;20230;-43
2022/07/08 04:38:17;;;;;;;13.70;2.10;;;;;;;;;;5093892;28;20253;-42
2022/07/08 04:40:44;;;;;;;8.93;2.58;;;;;;;;;;5092690;28;20335;-44
2022/07/08 04:43:12;;;;;;;9.57;2.10;;;;;;;;;;5093488;27;20652;-42
2022/07/08 04:45:44;;;;;;;6.68;2.25;;;;;;;;;;5091360;28;20238;-43
2022/07/08 04:48:12;;;;;;;8.27;2.28;;;;;;;;;;5093446;28;20257;-42
2022/07/08 04:50:39;;;;;;;16.90;2.53;;;;;;;;;;5093862;28;20218;-42
2022/07/08 04:53:06;;;;;;;8.90;2.05;;;;;;;;;;5093625;28;20242;-42
2022/07/08 04:55:33;;;;;;;9.55;1.95;;;;;;;;;;5093215;28;20218;-42
2022/07/08 04:58:02;;;;;;;5.00;1.90;;;;;;;;;;5093553;28;20233;-43
2022/07/08 05:00:30;;;;;;;4.47;1.50;;;;;;;;;;5093611;28;20226;-47
2022/07/08 05:02:58;;;;;;;6.03;1.63;;;;;;;;;;5093914;28;20231;-41
2022/07/08 05:05:27;;;;;;;3.72;1.52;;;;;;;;;;5096059;28;20230;-42
2022/07/08 05:07:56;;;;;;;2.08;1.58;;;;;;;;;;5097719;28;20230;-44
2022/07/08 05:10:24;;;;;;;5.93;1.58;;;;;;;;;;5097138;28;20284;-45
2022/07/08 05:12:52;;;;;;;4.50;1.58;;;;;;;;;;5097317;28;20226;-42
2022/07/08 05:15:20;;;;;;;2.28;1.20;;;;;;;;;;5097405;28;20237;-41
2022/07/08 05:17:47;;;;;;;2.25;1.63;;;;;;;;;;5098460;28;20195;-42
2022/07/08 05:20:15;;;;;;;18.10;10.45;;;;;;;;;;5098005;28;20230;-41
2022/07/08 05:22:42;;;;;;;3.55;2.15;;;;;;;;;;5098093;28;20198;-41
2022/07/08 05:25:09;;;;;;;3.88;1.30;;;;;;;;;;5098176;28;20260;-41
2022/07/08 05:27:36;;;;;;;2.30;1.35;;;;;;;;;;5098619;28;20206;-42
2022/07/08 05:30:05;;;;;;;2.92;1.35;;;;;;;;;;5098136;28;20199;-42
2022/07/08 05:32:32;;;;;;;5.63;1.40;;;;;;;;;;5098235;28;20203;-41
2022/07/08 05:35:00;;;;;;;2.42;1.33;;;;;;;;;;5098126;28;20222;-43
2022/07/08 05:37:29;;;;;;;3.50;1.25;;;;;;;;;;5097387;28;20548;-45
2022/07/08 05:39:56;;;;;;;4.78;1.20;;;;;;;;;;5090548;28;20303;-42
2022/07/08 05:42:24;;;;;;;7.35;1.00;;;;;;;;;;5096891;28;20219;-42
2022/07/08 05:44:51;;;;;;;3.78;1.30;;;;;;;;;;5095807;28;20223;-43
2022/07/08 05:47:18;;;;;;;2.65;1.00;;;;;;;;;;5096357;28;20276;-43
2022/07/08 05:49:46;;;;;;;5.63;1.10;;;;;;;;;;5096513;28;20237;-45
2022/07/08 05:52:13;;;;;;;5.65;1.38;;;;;;;;;;5091506;28;20223;-42
2022/07/08 05:54:45;;;;;;;2.33;1.02;;;;;;;;;;5094733;28;20231;-45
2022/07/08 05:57:13;;;;;;;2.67;1.00;;;;;;;;;;5095749;28;20211;-42
2022/07/08 05:59:44;;;;;;;8.13;0.90;;;;;;;;;;5095242;28;20234;-42
2022/07/08 06:02:11;;;;;;;7.03;1.20;;;;;;;;;;5095169;28;20701;-47
2022/07/08 06:04:38;;;;;;;4.57;1.20;;;;;;;;;;5095433;28;20238;-44
2022/07/08 06:07:05;;;;;;;3.05;1.13;;;;;;;;;;5095448;28;20559;-43
2022/07/08 06:09:32;;;;;;;4.70;1.20;;;;;;;;;;5094931;28;20254;-43
2022/07/08 06:11:59;;;;;;;3.10;1.00;;;;;;;;;;5095254;28;20222;-43
2022/07/08 06:14:26;;;;;;;5.10;1.00;;;;;;;;;;5094909;28;20644;-47
2022/07/08 06:16:53;;;;;;;7.28;1.20;;;;;;;;;;5094643;28;20228;-45
2022/07/08 06:19:20;;;;;;;1.92;0.98;;;;;;;;;;5095066;28;20284;-43
2022/07/08 06:21:48;;;;;;;4.70;0.90;;;;;;;;;;5094937;28;20242;-44
2022/07/08 06:24:15;;;;;;;4.15;0.70;;;;;;;;;;5094334;28;20311;-49
2022/07/08 06:26:46;;;;;;;2.53;0.90;;;;;;;;;;5092792;28;20599;-43
2022/07/08 06:29:14;;;;;;;3.83;0.70;;;;;;;;;;5093750;28;20226;-43
2022/07/08 06:31:44;;;;;;;3.00;0.90;;;;;;;;;;5095223;28;20284;-45
2022/07/08 06:34:12;;;;;;;2.72;0.73;;;;;;;;;;5094636;28;20795;-45
2022/07/08 06:36:40;;;;;;;4.93;0.90;;;;;;;;;;5095059;28;20291;-44
2022/07/08 06:39:08;;;;;;;1.35;0.82;;;;;;;;;;5090374;28;20224;-45
2022/07/08 06:41:35;;;;;;;3.65;0.90;;;;;;;;;;5093527;28;20300;-43
2022/07/08 06:44:03;;;;;;;2.10;0.70;;;;;;;;;;5090350;28;20234;-43
2022/07/08 06:46:30;;;;;;;3.72;1.02;;;;;;;;;;5093224;28;20250;-45
2022/07/08 06:48:57;;;;;;;2.55;0.82;;;;;;;;;;5094466;28;20222;-46
2022/07/08 06:51:24;;;;;;;0.90;0.82;;;;;;;;;;5092124;28;20260;-45
2022/07/08 06:56:37;;;;;;;1.70;0.80;;;;;;;;;;5092916;28;20210;-43
2022/07/08 06:59:06;;;;;;;2.42;0.70;;;;;;;;;;5088184;28;20284;-42
2022/07/08 07:01:33;;;;;;;2.78;0.80;;;;;;;;;;5094024;28;20229;-45
2022/07/08 07:04:01;;;;;;;3.42;0.98;;;;;;;;;;5094361;28;20224;-42
2022/07/08 07:06:28;;;;;;;3.55;0.90;;;;;;;;;;5092340;28;20230;-43
2022/07/08 07:08:55;;;;;;;2.17;0.77;;;;;;;;;;5093331;28;20284;-43
2022/07/08 07:11:22;;;;;;;2.63;1.10;;;;;;;;;;5094085;28;20222;-44
2022/07/08 07:13:49;;;;;;;1.35;0.77;;;;;;;;;;5093964;28;20222;-47
2022/07/08 07:16:16;;;;;;;2.63;1.00;;;;;;;;;;5093582;28;20218;-47
2022/07/08 07:18:43;;;;;;;2.67;0.80;;;;;;;;;;5094137;28;20227;-43
2022/07/08 07:21:10;;;;;;;2.80;0.73;;;;;;;;;;5093020;28;20222;-43
2022/07/08 07:23:37;;;;;;;3.17;0.85;;;;;;;;;;5093059;28;20225;-46
2022/07/08 07:26:05;;;;;;;2.92;0.88;;;;;;;;;;5093551;28;20254;-43
2022/07/08 07:28:34;;;;;;;2.90;0.88;;;;;;;;;;5092724;28;20229;-43
2022/07/08 07:31:01;;;;;;;2.33;1.00;;;;;;;;;;5088545;28;20242;-45
2022/07/08 07:33:29;;;;;;;1.23;0.80;;;;;;;;;;5093757;28;20223;-45
2022/07/08 07:35:56;;;;;;;1.23;0.95;;;;;;;;;;5090258;28;20276;-46
2022/07/08 07:38:23;;;;;;;3.28;0.80;;;;;;;;;;5091499;28;20226;-47
2022/07/08 07:40:50;;;;;;;5.80;1.30;;;;;;;;;;5083378;28;20230;-47
2022/07/08 07:43:17;;;;;;;12.50;5.03;;;;;;;;;;5094029;28;20507;-47
2022/07/08 07:45:44;;;;;;;3.42;1.35;;;;;;;;;;5094250;28;20260;-46
2022/07/08 07:48:11;;;;;;;2.00;1.00;;;;;;;;;;5093596;28;20191;-47
2022/07/08 07:50:39;;;;;;;1.75;1.10;;;;;;;;;;5094081;28;20205;-46
2022/07/08 07:53:06;;;;;;;0.80;0.80;;;;;;;;;;5094177;28;20266;-49
2022/07/08 07:55:34;;;;;;;1.23;0.85;;;;;;;;;;5092975;28;20288;-46
2022/07/08 07:58:01;;;;;;;2.42;1.00;;;;;;;;;;5094065;28;20198;-45
2022/07/08 08:00:28;;;;;;;2.50;0.73;;;;;;;;;;5094175;28;20191;-45
2022/07/08 08:02:56;;;;;;;2.38;0.98;;;;;;;;;;5094906;28;20633;-44
2022/07/08 08:05:23;;;;;;;1.95;1.10;;;;;;;;;;5095321;28;20207;-44
2022/07/08 08:07:50;;;;;;;2.00;0.95;;;;;;;;;;5088044;28;20303;-43
2022/07/08 08:10:17;;;;;;;3.28;1.10;;;;;;;;;;5094434;28;20706;-43
2022/07/08 08:12:44;;;;;;;5.25;1.00;;;;;;;;;;5094214;28;20283;-45
2022/07/08 08:15:11;;;;;;;3.45;1.20;;;;;;;;;;5093892;28;20287;-44
2022/07/08 08:17:39;;;;;;;2.22;1.10;;;;;;;;;;5093904;28;20284;-43
2022/07/08 08:20:08;;;;;;;3.72;1.10;;;;;;;;;;5094006;28;20226;-45
2022/07/08 08:22:36;;;;;;;7.35;1.42;;;;;;;;;;5093323;28;20300;-42
2022/07/08 08:25:23;;;;;;;5.03;1.30;;;;;;;;;;5093803;28;20227;-46
2022/07/08 08:27:50;;;;;;;2.95;1.38;;;;;;;;;;5093294;28;20223;-47
2022/07/08 08:30:17;;;;;;;2.10;1.40;;;;;;;;;;5092530;28;20214;-49
2022/07/08 08:32:45;;;;;;;2.47;1.48;;;;;;;;;;5090703;28;20702;-45
2022/07/08 08:35:11;;;;;;;3.45;1.30;;;;;;;;;;5093088;28;20536;-45
2022/07/08 08:37:38;;;;;;;2.67;1.20;;;;;;;;;;5092870;28;20202;-46
2022/07/08 08:40:09;;;;;;;3.08;1.55;;;;;;;;;;5094350;28;20259;-44
2022/07/08 08:42:37;;;;;;;6.70;2.33;;;;;;;;;;5097747;28;20244;-46
2022/07/08 08:45:05;;;;;;;2.63;1.15;;;;;;;;;;5094627;28;20210;-45
2022/07/08 08:47:33;;;;;;;1.80;1.20;;;;;;;;;;5097605;28;20191;-45
2022/07/08 08:52:49;;;;;;;2.03;1.70;;;;;;;;;;5096520;28;20605;-45
2022/07/08 08:55:26;;;;;;;2.75;1.30;;;;;;;;;;5093995;28;20214;-45
2022/07/08 08:58:03;;;;;;;2.85;1.52;;;;;;;;;;5097358;28;20198;-46
2022/07/08 09:00:32;;;;;;;3.97;1.20;;;;;;;;;;5096293;28;20187;-45
2022/07/08 09:03:00;;;;;;;3.35;0.93;;;;;;;;;;5094632;28;20186;-47
2022/07/08 09:05:28;;;;;;;2.35;0.80;;;;;;;;;;5097288;28;20225;-46
2022/07/08 09:07:56;;;;;;;4.03;0.85;;;;;;;;;;5097054;28;20203;-46
2022/07/08 09:10:24;;;;;;;2.40;0.90;;;;;;;;;;5096816;28;20199;-45
2022/07/08 09:13:07;;;;;;;2.60;1.00;;;;;;;;;;5097137;28;20668;-48
2022/07/08 09:15:35;;;;;;;1.48;1.02;;;;;;;;;;5096075;28;20617;-47
2022/07/08 09:18:14;;;;;;;3.35;1.08;;;;;;;;;;5097007;28;20199;-45
2022/07/08 09:20:48;;;;;;;2.03;1.00;;;;;;;;;;5095126;28;20258;-45
2022/07/08 09:23:17;;;;;;;2.30;0.90;;;;;;;;;;5094380;28;20606;-45
2022/07/08 09:25:47;;;;;;;1.70;1.00;;;;;;;;;;5096526;28;20272;-47
2022/07/08 09:28:15;;;;;;;3.03;0.95;;;;;;;;;;5094034;28;20202;-50
2022/07/08 09:30:44;;;;;;;1.02;0.90;;;;;;;;;;5096899;28;20207;-46
2022/07/08 09:33:12;;;;;;;4.20;1.15;;;;;;;;;;5096391;28;20195;-47
2022/07/08 09:35:40;;;;;;;2.67;1.13;;;;;;;;;;5096383;28;20210;-45
2022/07/08 09:38:08;;;;;;;3.75;1.40;;;;;;;;;;5096288;28;20548;-46
2022/07/08 09:40:36;;;;;;;3.03;1.10;;;;;;;;;;5096637;28;20203;-44
2022/07/08 09:43:12;;;;;;;2.70;1.05;;;;;;;;;;5096673;28;20581;-43
2022/07/08 09:45:40;;;;;;;3.97;1.20;;;;;;;;;;5094115;28;20616;-45
2022/07/08 09:48:08;;;;;;;5.00;0.90;;;;;;;;;;5095050;28;20273;-44
2022/07/08 09:50:42;;;;;;;1.73;0.73;;;;;;;;;;5095122;28;20198;-45
2022/07/08 09:53:29;;;;;;;1.13;0.80;;;;;;;;;;5094500;28;20536;-45
2022/07/08 09:55:58;;;;;;;2.28;0.77;;;;;;;;;;5093565;28;20217;-42
2022/07/08 09:58:27;;;;;;;1.48;0.90;;;;;;;;;;5095496;28;20191;-45
2022/07/08 10:00:56;;;;;;;2.15;0.98;;;;;;;;;;5096150;28;20205;-42
2022/07/08 10:03:24;;;;;;;7.53;0.93;;;;;;;;;;5096112;28;20605;-45
2022/07/08 10:05:51;;;;;;;1.95;1.08;;;;;;;;;;5096007;28;20217;-43
2022/07/08 10:08:19;;;;;;;2.80;1.02;;;;;;;;;;5093317;28;20206;-42
2022/07/08 10:10:47;;;;;;;4.65;0.98;;;;;;;;;;5094734;28;20213;-43
2022/07/08 10:13:15;;;;;;;5.43;1.00;;;;;;;;;;5094813;28;20208;-43
2022/07/08 10:15:43;;;;;;;30.75;9.48;;;;;;;;;;5094404;28;20219;-42
2022/07/08 10:18:19;;;;;;;3.47;1.10;;;;;;;;;;5094191;28;20226;-44
2022/07/08 10:20:49;;;;;;;1.70;1.05;;;;;;;;;;5093396;28;20226;-44
2022/07/08 10:23:23;;;;;;;2.53;1.40;;;;;;;;;;5093642;28;20277;-44
2022/07/08 10:25:51;;;;;;;2.40;1.20;;;;;;;;;;5093277;28;20183;-45
2022/07/08 10:28:17;;;;;;;3.75;1.35;;;;;;;;;;5094372;28;20579;-45
2022/07/08 10:30:52;;;;;;;3.08;1.30;;;;;;;;;;5094619;28;20548;-47
2022/07/08 10:33:24;;;;;;;3.67;1.27;;;;;;;;;;5093463;28;20593;-47
2022/07/08 10:36:09;;;;;;;1.63;1.10;;;;;;;;;;5095116;28;20664;-47
2022/07/08 10:38:41;;;;;;;4.13;1.10;;;;;;;;;;5093046;28;20187;-48
2022/07/08 10:41:21;;;;;;;0.90;0.75;;;;;;;;;;5095450;28;20198;-49
2022/07/08 10:43:53;;;;;;;1.85;1.50;;;;;;;;;;5094744;28;20617;-45
2022/07/08 10:46:21;;;;;;;2.78;1.13;;;;;;;;;;5096822;28;20179;-43
2022/07/08 10:48:49;;;;;;;2.03;1.30;;;;;;;;;;5096672;28;20301;-45
2022/07/08 10:51:20;;;;;;;3.17;1.05;;;;;;;;;;5094322;28;20714;-50
2022/07/08 10:54:05;;;;;;;1.80;1.27;;;;;;;;;;5094003;28;20202;-49
2022/07/08 10:56:48;;;;;;;1.98;1.10;;;;;;;;;;5095510;28;20219;-48
2022/07/08 10:59:19;;;;;;;3.95;1.30;;;;;;;;;;5092213;28;20213;-46
2022/07/08 11:02:04;;;;;;;3.25;1.20;;;;;;;;;;5095086;28;20187;-49
2022/07/08 11:04:34;;;;;;;3.80;1.13;;;;;;;;;;5095295;28;20187;-45
2022/07/08 11:09:49;;;;;;;4.30;1.42;;;;;;;;;;5095268;28;20182;-46
2022/07/08 11:12:21;;;;;;;4.32;1.40;;;;;;;;;;5095915;28;20179;-45
2022/07/08 11:14:50;;;;;;;2.75;1.30;;;;;;;;;;5095825;28;20696;-46
2022/07/08 11:17:18;;;;;;;1.90;1.15;;;;;;;;;;5096346;28;20194;-45
2022/07/08 11:19:46;;;;;;;1.88;1.30;;;;;;;;;;5095943;28;20210;-45
2022/07/08 11:22:13;;;;;;;3.75;1.40;;;;;;;;;;5096132;28;20235;-46
2022/07/08 11:24:51;;;;;;;3.33;1.40;;;;;;;;;;5095927;28;20528;-45
2022/07/08 11:27:30;;;;;;;3.38;1.40;;;;;;;;;;5095937;28;20218;-45
2022/07/08 11:29:58;;;;;;;4.45;1.60;;;;;;;;;;5094964;28;20202;-45
2022/07/08 11:32:27;;;;;;;4.60;1.58;;;;;;;;;;5092834;28;20659;-46
2022/07/08 11:34:55;;;;;;;3.72;1.70;;;;;;;;;;5091466;28;20265;-48
2022/07/08 11:37:23;;;;;;;2.78;1.40;;;;;;;;;;5093154;28;20206;-47
2022/07/08 11:39:50;;;;;;;3.78;1.75;;;;;;;;;;5093022;28;20199;-48
2022/07/08 11:42:17;;;;;;;4.35;1.60;;;;;;;;;;5085304;28;20210;-47
2022/07/08 11:44:45;;;;;;;2.72;1.48;;;;;;;;;;5091017;28;20260;-45
2022/07/08 11:47:19;;;;;;;2.72;1.33;;;;;;;;;;5092964;28;20191;-46
2022/07/08 11:49:48;;;;;;;2.55;1.30;;;;;;;;;;5092923;28;20198;-48
2022/07/08 11:52:17;;;;;;;4.38;1.60;;;;;;;;;;5094174;28;20206;-46
2022/07/08 11:54:46;;;;;;;1.75;1.20;;;;;;;;;;5094076;28;20210;-46
2022/07/08 11:57:16;;;;;;;4.90;1.63;;;;;;;;;;5093699;28;20500;-46
2022/07/08 11:59:44;;;;;;;4.57;1.60;;;;;;;;;;5092841;28;20285;-50
2022/07/08 12:02:12;;;;;;;7.68;1.70;;;;;;;;;;5094138;28;20218;-47
2022/07/08 12:04:46;;;;;;;4.63;1.60;;;;;;;;;;5093625;28;20199;-46
2022/07/08 12:07:24;;;;;;;3.10;1.55;;;;;;;;;;5093675;28;20182;-45
2022/07/08 12:09:59;;;;;;;2.53;1.33;;;;;;;;;;5094601;28;20213;-47
2022/07/08 12:12:28;;;;;;;8.48;1.60;;;;;;;;;;5095341;28;20206;-47
2022/07/08 12:14:55;;;;;;;2.58;1.70;;;;;;;;;;5094195;28;20198;-45
2022/07/08 12:17:24;;;;;;;5.78;1.50;;;;;;;;;;5095020;28;20198;-46
2022/07/08 12:19:53;;;;;;;4.20;1.75;;;;;;;;;;5093484;28;20203;-46
2022/07/08 12:22:45;;;;;;;2.55;1.40;;;;;;;;;;5093158;28;20219;-46
2022/07/08 12:25:14;;;;;;;2.22;1.27;;;;;;;;;;5081249;28;20222;-46
2022/07/08 12:27:43;;;;;;;2.42;1.20;;;;;;;;;;5089613;28;20546;-46
2022/07/08 12:30:10;;;;;;;8.18;1.75;;;;;;;;;;5094333;28;20203;-45
2022/07/08 12:32:38;;;;;;;3.55;1.63;;;;;;;;;;5095149;28;20190;-48
2022/07/08 12:35:07;;;;;;;5.10;1.38;;;;;;;;;;5093605;28;20226;-48
2022/07/08 12:37:34;;;;;;;2.75;1.48;;;;;;;;;;5094923;28;20202;-46
2022/07/08 12:40:20;;;;;;;4.60;1.50;;;;;;;;;;5094766;28;20206;-49
2022/07/08 12:43:03;;;;;;;3.85;1.50;;;;;;;;;;5094610;28;20206;-46
2022/07/08 12:45:30;;;;;;;3.40;1.27;;;;;;;;;;5095034;28;20187;-46
2022/07/08 12:47:58;;;;;;;1.90;1.23;;;;;;;;;;5094655;28;20272;-47
2022/07/08 12:50:26;;;;;;;3.95;1.42;;;;;;;;;;5094751;28;20221;-48
2022/07/08 12:52:53;;;;;;;4.78;1.63;;;;;;;;;;5094769;28;20199;-46
2022/07/08 12:55:21;;;;;;;3.42;1.42;;;;;;;;;;5094643;28;20222;-46
2022/07/08 12:57:48;;;;;;;4.97;1.27;;;;;;;;;;5094315;28;20209;-47
2022/07/08 13:00:17;;;;;;;2.88;1.40;;;;;;;;;;5094668;28;20202;-46
2022/07/08 13:02:46;;;;;;;4.38;1.92;;;;;;;;;;5087977;28;20314;-46
2022/07/08 13:05:13;;;;;;;1.80;1.35;;;;;;;;;;5094084;28;20291;-46
2022/07/08 13:07:40;;;;;;;4.57;1.55;;;;;;;;;;5093322;28;20218;-47
2022/07/08 13:10:08;;;;;;;3.88;1.80;;;;;;;;;;5093830;28;20238;-48
2022/07/08 13:12:35;;;;;;;4.10;1.40;;;;;;;;;;5093478;28;20551;-47
2022/07/08 13:15:03;;;;;;;5.18;1.83;;;;;;;;;;5093869;28;20284;-46
2022/07/08 13:17:38;;;;;;;5.30;1.70;;;;;;;;;;5092090;28;20230;-44
2022/07/08 13:20:05;;;;;;;5.50;1.60;;;;;;;;;;5093496;28;20313;-44
2022/07/08 13:22:32;;;;;;;6.15;2.17;;;;;;;;;;5093613;28;20249;-48
2022/07/08 13:25:00;;;;;;;3.00;1.30;;;;;;;;;;5093646;28;20305;-46
2022/07/08 13:27:27;;;;;;;2.13;1.40;;;;;;;;;;5096933;28;20226;-46
2022/07/08 13:29:54;;;;;;;3.30;1.55;;;;;;;;;;5097551;28;20371;-43
2022/07/08 13:32:23;;;;;;;3.20;1.52;;;;;;;;;;5096849;28;20222;-48
2022/07/08 13:34:50;;;;;;;2.70;1.60;;;;;;;;;;5076944;28;20580;-49
2022/07/08 13:37:35;;;;;;;3.05;1.55;;;;;;;;;;5091725;28;20218;-48
2022/07/08 13:40:03;;;;;;;4.00;1.50;;;;;;;;;;5092090;28;20301;-48
2022/07/08 13:42:29;;;;;;;2.95;1.60;;;;;;;;;;5084724;28;20281;-50
2022/07/08 13:44:57;;;;;;;2.08;1.38;;;;;;;;;;5081929;28;20649;-48
2022/07/08 13:47:23;;;;;;;3.80;1.33;;;;;;;;;;5096876;28;20229;-49
2022/07/08 13:49:50;;;;;;;4.55;1.55;;;;;;;;;;5096423;28;20219;-49
2022/07/08 13:52:18;;;;;;;3.10;1.30;;;;;;;;;;5095968;28;20222;-50
2022/07/08 13:55:00;;;;;;;3.10;1.50;;;;;;;;;;5088592;28;20272;-50
2022/07/08 13:57:29;;;;;;;3.42;1.50;;;;;;;;;;5095240;28;20585;-50
2022/07/08 13:59:56;;;;;;;4.07;1.80;;;;;;;;;;5093419;28;20219;-51
2022/07/08 14:02:23;;;;;;;4.90;1.95;;;;;;;;;;5094738;28;20672;-50
2022/07/08 14:04:50;;;;;;;4.88;2.20;;;;;;;;;;5092329;28;20720;-48
2022/07/08 14:07:17;;;;;;;5.07;2.05;;;;;;;;;;5092265;28;20219;-46
2022/07/08 14:09:44;;;;;;;3.58;1.90;;;;;;;;;;5095358;28;20222;-48
2022/07/08 14:12:12;;;;;;;2.25;1.70;;;;;;;;;;5095273;28;20215;-47
2022/07/08 14:14:38;;;;;;;2.60;1.55;;;;;;;;;;5094447;28;20226;-48
2022/07/08 14:17:05;;;;;;;6.50;2.10;;;;;;;;;;5094896;28;20229;-48
2022/07/08 14:19:33;;;;;;;3.70;1.88;;;;;;;;;;5093871;28;20227;-48
2022/07/08 14:22:00;;;;;;;2.80;1.60;;;;;;;;;;5095552;28;20230;-53
2022/07/08 14:24:27;;;;;;;3.55;1.70;;;;;;;;;;5096131;28;20256;-46
2022/07/08 14:26:54;;;;;;;4.85;2.13;;;;;;;;;;5096013;28;20237;-47
2022/07/08 14:29:21;;;;;;;5.65;2.10;;;;;;;;;;5094411;28;20292;-48
2022/07/08 14:31:48;;;;;;;5.40;2.08;;;;;;;;;;5095188;28;20231;-47
2022/07/08 14:34:16;;;;;;;4.82;2.72;;;;;;;;;;5096190;28;20234;-47
2022/07/08 14:36:43;;;;;;;3.20;2.47;;;;;;;;;;5095645;28;20234;-50
2022/07/08 14:39:10;;;;;;;4.53;2.17;;;;;;;;;;5094494;28;20549;-46
2022/07/08 14:41:38;;;;;;;4.32;2.50;;;;;;;;;;5095912;28;20229;-46
2022/07/08 14:44:05;;;;;;;2.58;2.08;;;;;;;;;;5095569;28;20222;-51
2022/07/08 14:46:32;;;;;;;5.70;2.25;;;;;;;;;;5095577;27;20223;-46
2022/07/08 14:48:59;;;;;;;7.20;2.10;;;;;;;;;;5094795;28;20275;-47
2022/07/08 14:51:26;;;;;;;7.05;1.95;;;;;;;;;;5090443;28;20237;-45
2022/07/08 14:53:53;;;;;;;6.43;2.40;;;;;;;;;;5080743;28;20226;-48
2022/07/08 14:56:21;;;;;;;6.00;1.80;;;;;;;;;;5094415;28;20234;-47
2022/07/08 14:58:48;;;;;;;5.38;1.85;;;;;;;;;;5093669;28;20688;-45